Terminal Aerodrome Forecast
Issued by NWS Grand Forks, ND

Home | Current Version | Previous Version | Graphics & Text | Print | Product List | Glossary On
Versions: 1 2 3 4 5 6 7 8 9 10 11 12 13 14 15 16 17 18 19
382
FTUS43 KFGF 231120
TAFGFK
TAF
KGFK 231120Z 2312/2412 09011KT P6SM OVC250
     FM231900 14010KT P6SM BKN090
      TEMPO 2320/2322 2SM TSRA OVC040CB
     FM232200 00000KT P6SM VCTS OVC090CB
     FM232300 22005KT P6SM BKN250
     FM240700 27009KT P6SM FEW250=

USA.gov is the U.S. government's official web portal to all federal, state and local government web resources and services.